sensor_id;sensor_type;location;lat;lon;timestamp;P1;durP1;ratioP1;P2;durP2;ratioP2
65543;SDS011;52173;45.204;39.240;2022-08-07T00:00:07;9.85;;;5.03;;
65543;SDS011;52173;45.204;39.240;2022-08-07T00:02:41;9.95;;;5.75;;
65543;SDS011;52173;45.204;39.240;2022-08-07T00:05:11;7.30;;;4.80;;
65543;SDS011;52173;45.204;39.240;2022-08-07T00:07:39;10.30;;;5.43;;
65543;SDS011;52173;45.204;39.240;2022-08-07T00:10:08;12.73;;;5.88;;
65543;SDS011;52173;45.204;39.240;2022-08-07T00:12:45;9.27;;;5.68;;
65543;SDS011;52173;45.204;39.240;2022-08-07T00:15:12;13.32;;;5.22;;
65543;SDS011;52173;45.204;39.240;2022-08-07T00:17:38;8.20;;;5.35;;
65543;SDS011;52173;45.204;39.240;2022-08-07T00:20:06;9.55;;;5.30;;
65543;SDS011;52173;45.204;39.240;2022-08-07T00:22:33;16.38;;;5.40;;
65543;SDS011;52173;45.204;39.240;2022-08-07T00:24:59;9.40;;;5.40;;
65543;SDS011;52173;45.204;39.240;2022-08-07T00:27:25;7.20;;;4.85;;
65543;SDS011;52173;45.204;39.240;2022-08-07T00:29:52;9.38;;;5.35;;
65543;SDS011;52173;45.204;39.240;2022-08-07T00:32:18;12.63;;;5.90;;
65543;SDS011;52173;45.204;39.240;2022-08-07T00:34:44;9.93;;;6.07;;
65543;SDS011;52173;45.204;39.240;2022-08-07T00:37:16;7.82;;;5.07;;
65543;SDS011;52173;45.204;39.240;2022-08-07T00:39:43;7.75;;;5.30;;
65543;SDS011;52173;45.204;39.240;2022-08-07T00:42:09;10.43;;;5.40;;
65543;SDS011;52173;45.204;39.240;2022-08-07T00:44:36;7.88;;;5.10;;
65543;SDS011;52173;45.204;39.240;2022-08-07T00:47:03;7.90;;;4.97;;
65543;SDS011;52173;45.204;39.240;2022-08-07T00:49:31;10.38;;;5.20;;
65543;SDS011;52173;45.204;39.240;2022-08-07T00:51:57;12.23;;;5.53;;
65543;SDS011;52173;45.204;39.240;2022-08-07T00:54:24;11.10;;;4.97;;
65543;SDS011;52173;45.204;39.240;2022-08-07T00:56:50;13.50;;;5.35;;
65543;SDS011;52173;45.204;39.240;2022-08-07T00:59:17;12.25;;;5.10;;
65543;SDS011;52173;45.204;39.240;2022-08-07T01:01:44;10.60;;;4.68;;
65543;SDS011;52173;45.204;39.240;2022-08-07T01:04:14;7.60;;;5.05;;
65543;SDS011;52173;45.204;39.240;2022-08-07T01:06:41;7.82;;;4.88;;
65543;SDS011;52173;45.204;39.240;2022-08-07T01:09:07;10.25;;;4.90;;
65543;SDS011;52173;45.204;39.240;2022-08-07T01:11:34;7.15;;;4.30;;
65543;SDS011;52173;45.204;39.240;2022-08-07T01:14:00;8.93;;;5.20;;
65543;SDS011;52173;45.204;39.240;2022-08-07T01:16:27;9.80;;;4.85;;
65543;SDS011;52173;45.204;39.240;2022-08-07T01:18:54;7.70;;;5.03;;
65543;SDS011;52173;45.204;39.240;2022-08-07T01:21:21;11.02;;;5.57;;
65543;SDS011;52173;45.204;39.240;2022-08-07T01:23:54;8.48;;;5.38;;
65543;SDS011;52173;45.204;39.240;2022-08-07T01:26:22;10.52;;;5.68;;
65543;SDS011;52173;45.204;39.240;2022-08-07T01:28:50;13.20;;;6.30;;
65543;SDS011;52173;45.204;39.240;2022-08-07T01:31:21;8.55;;;5.53;;
65543;SDS011;52173;45.204;39.240;2022-08-07T01:33:59;13.77;;;5.80;;
65543;SDS011;52173;45.204;39.240;2022-08-07T01:36:31;9.88;;;5.55;;
65543;SDS011;52173;45.204;39.240;2022-08-07T01:39:00;9.18;;;5.28;;
65543;SDS011;52173;45.204;39.240;2022-08-07T01:41:27;9.63;;;5.88;;
65543;SDS011;52173;45.204;39.240;2022-08-07T01:43:58;9.48;;;5.70;;
65543;SDS011;52173;45.204;39.240;2022-08-07T01:46:25;10.23;;;5.40;;
65543;SDS011;52173;45.204;39.240;2022-08-07T01:48:52;18.10;;;6.13;;
65543;SDS011;52173;45.204;39.240;2022-08-07T01:51:21;13.15;;;5.75;;
65543;SDS011;52173;45.204;39.240;2022-08-07T01:53:53;10.85;;;5.00;;
65543;SDS011;52173;45.204;39.240;2022-08-07T01:56:24;8.45;;;4.97;;
65543;SDS011;52173;45.204;39.240;2022-08-07T01:59:02;8.50;;;5.55;;
65543;SDS011;52173;45.204;39.240;2022-08-07T02:01:34;12.13;;;5.40;;
65543;SDS011;52173;45.204;39.240;2022-08-07T02:04:09;11.52;;;5.57;;
65543;SDS011;52173;45.204;39.240;2022-08-07T02:06:53;9.73;;;4.97;;
65543;SDS011;52173;45.204;39.240;2022-08-07T02:09:24;12.93;;;4.88;;
65543;SDS011;52173;45.204;39.240;2022-08-07T02:11:54;11.43;;;5.18;;
65543;SDS011;52173;45.204;39.240;2022-08-07T02:14:25;9.07;;;4.78;;
65543;SDS011;52173;45.204;39.240;2022-08-07T02:16:53;8.15;;;4.78;;
65543;SDS011;52173;45.204;39.240;2022-08-07T02:19:21;8.60;;;4.97;;
65543;SDS011;52173;45.204;39.240;2022-08-07T02:21:48;7.53;;;5.18;;
65543;SDS011;52173;45.204;39.240;2022-08-07T02:24:17;8.32;;;4.38;;
65543;SDS011;52173;45.204;39.240;2022-08-07T02:26:44;11.68;;;5.50;;
65543;SDS011;52173;45.204;39.240;2022-08-07T02:29:12;9.40;;;4.97;;
65543;SDS011;52173;45.204;39.240;2022-08-07T02:31:40;10.30;;;4.50;;
65543;SDS011;52173;45.204;39.240;2022-08-07T02:34:07;9.82;;;4.82;;
65543;SDS011;52173;45.204;39.240;2022-08-07T02:36:38;11.30;;;4.40;;
65543;SDS011;52173;45.204;39.240;2022-08-07T02:39:13;9.57;;;4.50;;
65543;SDS011;52173;45.204;39.240;2022-08-07T02:41:42;8.13;;;4.32;;
65543;SDS011;52173;45.204;39.240;2022-08-07T02:44:09;10.15;;;4.60;;
65543;SDS011;52173;45.204;39.240;2022-08-07T02:46:38;7.72;;;4.35;;
65543;SDS011;52173;45.204;39.240;2022-08-07T02:49:06;12.15;;;4.03;;
65543;SDS011;52173;45.204;39.240;2022-08-07T02:51:34;7.10;;;4.00;;
65543;SDS011;52173;45.204;39.240;2022-08-07T02:54:02;13.18;;;4.65;;
65543;SDS011;52173;45.204;39.240;2022-08-07T02:56:32;12.20;;;4.30;;
65543;SDS011;52173;45.204;39.240;2022-08-07T02:59:01;8.77;;;3.90;;
65543;SDS011;52173;45.204;39.240;2022-08-07T03:01:34;7.97;;;4.40;;
65543;SDS011;52173;45.204;39.240;2022-08-07T03:04:09;10.63;;;4.07;;
65543;SDS011;52173;45.204;39.240;2022-08-07T03:06:38;6.53;;;4.18;;
65543;SDS011;52173;45.204;39.240;2022-08-07T03:09:08;11.57;;;4.63;;
65543;SDS011;52173;45.204;39.240;2022-08-07T03:11:38;6.60;;;4.03;;
65543;SDS011;52173;45.204;39.240;2022-08-07T03:14:07;6.20;;;3.72;;
65543;SDS011;52173;45.204;39.240;2022-08-07T03:16:34;11.02;;;4.00;;
65543;SDS011;52173;45.204;39.240;2022-08-07T03:19:02;7.05;;;4.07;;
65543;SDS011;52173;45.204;39.240;2022-08-07T03:21:29;9.73;;;4.40;;
65543;SDS011;52173;45.204;39.240;2022-08-07T03:23:56;6.43;;;3.35;;
65543;SDS011;52173;45.204;39.240;2022-08-07T03:26:27;8.88;;;3.97;;
65543;SDS011;52173;45.204;39.240;2022-08-07T03:28:59;8.60;;;3.78;;
65543;SDS011;52173;45.204;39.240;2022-08-07T03:31:30;9.60;;;4.00;;
65543;SDS011;52173;45.204;39.240;2022-08-07T03:34:01;7.82;;;4.07;;
65543;SDS011;52173;45.204;39.240;2022-08-07T03:36:32;8.57;;;3.58;;
65543;SDS011;52173;45.204;39.240;2022-08-07T03:39:11;8.80;;;4.38;;
65543;SDS011;52173;45.204;39.240;2022-08-07T03:41:48;5.50;;;3.67;;
65543;SDS011;52173;45.204;39.240;2022-08-07T03:44:14;7.35;;;3.35;;
65543;SDS011;52173;45.204;39.240;2022-08-07T03:46:42;9.15;;;3.90;;
65543;SDS011;52173;45.204;39.240;2022-08-07T03:49:09;6.03;;;3.05;;
65543;SDS011;52173;45.204;39.240;2022-08-07T03:51:40;7.35;;;3.33;;
65543;SDS011;52173;45.204;39.240;2022-08-07T03:54:08;7.38;;;3.90;;
65543;SDS011;52173;45.204;39.240;2022-08-07T03:56:35;7.50;;;3.35;;
65543;SDS011;52173;45.204;39.240;2022-08-07T03:59:05;8.15;;;3.72;;
65543;SDS011;52173;45.204;39.240;2022-08-07T04:01:32;7.40;;;3.50;;
65543;SDS011;52173;45.204;39.240;2022-08-07T04:04:00;9.70;;;3.50;;
65543;SDS011;52173;45.204;39.240;2022-08-07T04:06:27;10.65;;;4.25;;
65543;SDS011;52173;45.204;39.240;2022-08-07T04:08:53;8.35;;;3.15;;
65543;SDS011;52173;45.204;39.240;2022-08-07T04:11:20;7.25;;;3.85;;
65543;SDS011;52173;45.204;39.240;2022-08-07T04:13:47;7.90;;;2.92;;
65543;SDS011;52173;45.204;39.240;2022-08-07T04:16:16;8.65;;;3.97;;
65543;SDS011;52173;45.204;39.240;2022-08-07T04:18:43;9.25;;;3.22;;
65543;SDS011;52173;45.204;39.240;2022-08-07T04:21:09;7.40;;;3.28;;
65543;SDS011;52173;45.204;39.240;2022-08-07T04:23:36;8.18;;;3.20;;
65543;SDS011;52173;45.204;39.240;2022-08-07T04:26:03;6.00;;;3.00;;
65543;SDS011;52173;45.204;39.240;2022-08-07T04:28:32;6.95;;;3.45;;
65543;SDS011;52173;45.204;39.240;2022-08-07T04:30:59;8.85;;;3.28;;
65543;SDS011;52173;45.204;39.240;2022-08-07T04:33:30;6.68;;;3.08;;
65543;SDS011;52173;45.204;39.240;2022-08-07T04:35:56;7.55;;;3.08;;
65543;SDS011;52173;45.204;39.240;2022-08-07T04:38:27;6.25;;;2.90;;
65543;SDS011;52173;45.204;39.240;2022-08-07T04:40:55;5.38;;;2.40;;
65543;SDS011;52173;45.204;39.240;2022-08-07T04:43:51;8.73;;;2.97;;
65543;SDS011;52173;45.204;39.240;2022-08-07T04:51:59;6.85;;;2.47;;
65543;SDS011;52173;45.204;39.240;2022-08-07T04:54:51;3.42;;;1.90;;
65543;SDS011;52173;45.204;39.240;2022-08-07T04:57:53;5.45;;;2.20;;
65543;SDS011;52173;45.204;39.240;2022-08-07T05:00:33;7.75;;;2.33;;
65543;SDS011;52173;45.204;39.240;2022-08-07T05:03:19;5.95;;;2.22;;
65543;SDS011;52173;45.204;39.240;2022-08-07T05:05:56;6.80;;;2.55;;
65543;SDS011;52173;45.204;39.240;2022-08-07T05:09:00;6.95;;;2.47;;
65543;SDS011;52173;45.204;39.240;2022-08-07T05:11:35;3.67;;;1.90;;
65543;SDS011;52173;45.204;39.240;2022-08-07T05:14:18;3.72;;;1.90;;
65543;SDS011;52173;45.204;39.240;2022-08-07T05:16:52;5.20;;;1.88;;
65543;SDS011;52173;45.204;39.240;2022-08-07T05:19:23;5.25;;;2.10;;
65543;SDS011;52173;45.204;39.240;2022-08-07T05:21:54;7.10;;;2.25;;
65543;SDS011;52173;45.204;39.240;2022-08-07T05:24:25;3.35;;;2.08;;
65543;SDS011;52173;45.204;39.240;2022-08-07T05:26:54;17.50;;;2.47;;
65543;SDS011;52173;45.204;39.240;2022-08-07T05:29:24;3.50;;;1.98;;
65543;SDS011;52173;45.204;39.240;2022-08-07T05:31:52;3.20;;;1.90;;
65543;SDS011;52173;45.204;39.240;2022-08-07T05:34:24;7.22;;;2.30;;
65543;SDS011;52173;45.204;39.240;2022-08-07T05:36:52;3.70;;;2.20;;
65543;SDS011;52173;45.204;39.240;2022-08-07T05:39:28;5.38;;;2.20;;
65543;SDS011;52173;45.204;39.240;2022-08-07T05:41:59;5.47;;;1.90;;
65543;SDS011;52173;45.204;39.240;2022-08-07T05:44:26;6.80;;;2.15;;
65543;SDS011;52173;45.204;39.240;2022-08-07T05:46:58;3.20;;;1.73;;
65543;SDS011;52173;45.204;39.240;2022-08-07T05:49:26;3.90;;;1.95;;
65543;SDS011;52173;45.204;39.240;2022-08-07T05:51:54;4.47;;;2.00;;
65543;SDS011;52173;45.204;39.240;2022-08-07T05:54:24;4.35;;;1.73;;
65543;SDS011;52173;45.204;39.240;2022-08-07T05:56:50;4.57;;;2.00;;
65543;SDS011;52173;45.204;39.240;2022-08-07T05:59:19;6.72;;;2.00;;
65543;SDS011;52173;45.204;39.240;2022-08-07T06:01:51;2.22;;;1.40;;
65543;SDS011;52173;45.204;39.240;2022-08-07T06:04:19;3.75;;;1.83;;
65543;SDS011;52173;45.204;39.240;2022-08-07T06:06:47;5.43;;;1.83;;
65543;SDS011;52173;45.204;39.240;2022-08-07T06:09:16;6.78;;;2.00;;
65543;SDS011;52173;45.204;39.240;2022-08-07T06:11:46;4.15;;;1.63;;
65543;SDS011;52173;45.204;39.240;2022-08-07T06:14:14;3.78;;;1.67;;
65543;SDS011;52173;45.204;39.240;2022-08-07T06:16:44;16.08;;;2.50;;
65543;SDS011;52173;45.204;39.240;2022-08-07T06:19:12;4.25;;;2.00;;
65543;SDS011;52173;45.204;39.240;2022-08-07T06:21:40;3.25;;;1.73;;
65543;SDS011;52173;45.204;39.240;2022-08-07T06:24:09;4.55;;;1.60;;
65543;SDS011;52173;45.204;39.240;2022-08-07T06:26:40;6.13;;;2.00;;
65543;SDS011;52173;45.204;39.240;2022-08-07T06:29:07;5.57;;;1.60;;
65543;SDS011;52173;45.204;39.240;2022-08-07T06:31:35;8.13;;;1.98;;
65543;SDS011;52173;45.204;39.240;2022-08-07T06:34:01;4.22;;;1.50;;
65543;SDS011;52173;45.204;39.240;2022-08-07T06:36:28;2.95;;;1.40;;
65543;SDS011;52173;45.204;39.240;2022-08-07T06:38:56;17.45;;;2.30;;
65543;SDS011;52173;45.204;39.240;2022-08-07T06:41:25;3.70;;;1.65;;
65543;SDS011;52173;45.204;39.240;2022-08-07T06:43:58;4.22;;;1.50;;
65543;SDS011;52173;45.204;39.240;2022-08-07T06:46:26;5.95;;;1.90;;
65543;SDS011;52173;45.204;39.240;2022-08-07T06:48:53;5.22;;;1.55;;
65543;SDS011;52173;45.204;39.240;2022-08-07T06:51:25;5.50;;;2.25;;
65543;SDS011;52173;45.204;39.240;2022-08-07T06:53:57;3.17;;;1.55;;
65543;SDS011;52173;45.204;39.240;2022-08-07T06:56:32;2.97;;;1.55;;
65543;SDS011;52173;45.204;39.240;2022-08-07T06:59:18;3.88;;;1.70;;
65543;SDS011;52173;45.204;39.240;2022-08-07T07:01:53;6.22;;;1.45;;
65543;SDS011;52173;45.204;39.240;2022-08-07T07:04:22;8.82;;;1.85;;
65543;SDS011;52173;45.204;39.240;2022-08-07T07:06:50;5.30;;;1.63;;
65543;SDS011;52173;45.204;39.240;2022-08-07T07:09:27;9.07;;;2.03;;
65543;SDS011;52173;45.204;39.240;2022-08-07T07:14:48;5.20;;;1.75;;
65543;SDS011;52173;45.204;39.240;2022-08-07T07:17:25;2.97;;;1.55;;
65543;SDS011;52173;45.204;39.240;2022-08-07T07:19:58;4.55;;;1.92;;
65543;SDS011;52173;45.204;39.240;2022-08-07T07:22:27;4.30;;;1.60;;
65543;SDS011;52173;45.204;39.240;2022-08-07T07:24:54;15.38;;;2.42;;
65543;SDS011;52173;45.204;39.240;2022-08-07T07:27:22;3.72;;;1.40;;
65543;SDS011;52173;45.204;39.240;2022-08-07T07:29:55;5.22;;;1.63;;
65543;SDS011;52173;45.204;39.240;2022-08-07T07:32:25;3.97;;;1.52;;
65543;SDS011;52173;45.204;39.240;2022-08-07T07:34:57;4.63;;;1.58;;
65543;SDS011;52173;45.204;39.240;2022-08-07T07:37:25;16.33;;;1.85;;
65543;SDS011;52173;45.204;39.240;2022-08-07T07:39:54;7.00;;;1.98;;
65543;SDS011;52173;45.204;39.240;2022-08-07T07:42:24;5.00;;;1.80;;
65543;SDS011;52173;45.204;39.240;2022-08-07T07:44:52;7.63;;;1.35;;
65543;SDS011;52173;45.204;39.240;2022-08-07T07:47:19;6.78;;;1.58;;
65543;SDS011;52173;45.204;39.240;2022-08-07T07:49:47;3.13;;;1.40;;
65543;SDS011;52173;45.204;39.240;2022-08-07T07:52:15;4.28;;;1.40;;
65543;SDS011;52173;45.204;39.240;2022-08-07T07:54:43;3.55;;;1.50;;
65543;SDS011;52173;45.204;39.240;2022-08-07T07:57:11;5.55;;;1.60;;
65543;SDS011;52173;45.204;39.240;2022-08-07T07:59:42;4.68;;;1.42;;
65543;SDS011;52173;45.204;39.240;2022-08-07T08:02:22;3.35;;;1.25;;
65543;SDS011;52173;45.204;39.240;2022-08-07T08:04:53;4.80;;;1.33;;
65543;SDS011;52173;45.204;39.240;2022-08-07T08:07:22;3.95;;;1.25;;
65543;SDS011;52173;45.204;39.240;2022-08-07T08:09:50;5.80;;;1.10;;
65543;SDS011;52173;45.204;39.240;2022-08-07T08:12:19;8.10;;;1.55;;
65543;SDS011;52173;45.204;39.240;2022-08-07T08:14:46;4.53;;;1.40;;
65543;SDS011;52173;45.204;39.240;2022-08-07T08:17:12;4.55;;;1.50;;
65543;SDS011;52173;45.204;39.240;2022-08-07T08:19:40;10.23;;;1.65;;
65543;SDS011;52173;45.204;39.240;2022-08-07T08:22:08;3.75;;;1.10;;
65543;SDS011;52173;45.204;39.240;2022-08-07T08:24:55;3.97;;;1.38;;
65543;SDS011;52173;45.204;39.240;2022-08-07T08:27:42;4.25;;;1.00;;
65543;SDS011;52173;45.204;39.240;2022-08-07T08:30:13;2.45;;;1.30;;
65543;SDS011;52173;45.204;39.240;2022-08-07T08:32:44;3.40;;;1.27;;
65543;SDS011;52173;45.204;39.240;2022-08-07T08:35:16;6.07;;;1.73;;
65543;SDS011;52173;45.204;39.240;2022-08-07T08:37:46;9.10;;;1.45;;
65543;SDS011;52173;45.204;39.240;2022-08-07T08:40:20;14.80;;;1.60;;
65543;SDS011;52173;45.204;39.240;2022-08-07T08:42:55;4.13;;;1.40;;
65543;SDS011;52173;45.204;39.240;2022-08-07T08:45:31;6.72;;;1.40;;
65543;SDS011;52173;45.204;39.240;2022-08-07T08:50:49;4.65;;;1.20;;
65543;SDS011;52173;45.204;39.240;2022-08-07T08:56:32;6.65;;;1.50;;
65543;SDS011;52173;45.204;39.240;2022-08-07T08:59:46;7.95;;;1.40;;
65543;SDS011;52173;45.204;39.240;2022-08-07T09:05:10;3.10;;;1.45;;
65543;SDS011;52173;45.204;39.240;2022-08-07T09:13:45;4.43;;;1.20;;
65543;SDS011;52173;45.204;39.240;2022-08-07T09:19:23;6.93;;;1.50;;
65543;SDS011;52173;45.204;39.240;2022-08-07T09:28:19;9.50;;;1.50;;
65543;SDS011;52173;45.204;39.240;2022-08-07T09:31:07;5.82;;;1.35;;
65543;SDS011;52173;45.204;39.240;2022-08-07T09:36:36;4.38;;;1.20;;
65543;SDS011;52173;45.204;39.240;2022-08-07T09:45:53;2.78;;;1.30;;
65543;SDS011;52173;45.204;39.240;2022-08-07T09:54:43;4.32;;;1.20;;
65543;SDS011;52173;45.204;39.240;2022-08-07T09:57:27;8.20;;;1.48;;
65543;SDS011;52173;45.204;39.240;2022-08-07T10:00:16;3.45;;;1.08;;
65543;SDS011;52173;45.204;39.240;2022-08-07T10:11:21;5.57;;;1.30;;
65543;SDS011;52173;45.204;39.240;2022-08-07T10:22:56;9.00;;;1.70;;
65543;SDS011;52173;45.204;39.240;2022-08-07T10:25:38;9.65;;;1.45;;
65543;SDS011;52173;45.204;39.240;2022-08-07T10:39:42;3.72;;;1.40;;
65543;SDS011;52173;45.204;39.240;2022-08-07T10:56:35;4.72;;;1.50;;
65543;SDS011;52173;45.204;39.240;2022-08-07T10:59:08;4.18;;;1.40;;
65543;SDS011;52173;45.204;39.240;2022-08-07T11:01:43;8.40;;;1.63;;
65543;SDS011;52173;45.204;39.240;2022-08-07T11:04:19;7.35;;;1.60;;
65543;SDS011;52173;45.204;39.240;2022-08-07T11:07:05;7.32;;;1.65;;
65543;SDS011;52173;45.204;39.240;2022-08-07T11:09:48;7.43;;;1.40;;
65543;SDS011;52173;45.204;39.240;2022-08-07T11:15:38;5.50;;;1.50;;
65543;SDS011;52173;45.204;39.240;2022-08-07T11:18:18;9.13;;;2.17;;
65543;SDS011;52173;45.204;39.240;2022-08-07T11:23:42;3.15;;;1.52;;
65543;SDS011;52173;45.204;39.240;2022-08-07T11:34:57;4.53;;;1.73;;
65543;SDS011;52173;45.204;39.240;2022-08-07T11:37:41;9.43;;;1.70;;
65543;SDS011;52173;45.204;39.240;2022-08-07T11:40:23;6.22;;;1.55;;
65543;SDS011;52173;45.204;39.240;2022-08-07T11:43:23;3.95;;;1.50;;
65543;SDS011;52173;45.204;39.240;2022-08-07T11:45:58;12.57;;;1.90;;
65543;SDS011;52173;45.204;39.240;2022-08-07T11:57:30;57.63;;;4.25;;
65543;SDS011;52173;45.204;39.240;2022-08-07T12:00:08;3.00;;;1.42;;
65543;SDS011;52173;45.204;39.240;2022-08-07T12:08:23;4.95;;;1.90;;
65543;SDS011;52173;45.204;39.240;2022-08-07T12:11:00;3.97;;;2.05;;
65543;SDS011;52173;45.204;39.240;2022-08-07T12:16:15;7.80;;;1.90;;
65543;SDS011;52173;45.204;39.240;2022-08-07T12:22:01;3.42;;;1.63;;
65543;SDS011;52173;45.204;39.240;2022-08-07T12:24:46;4.45;;;2.13;;
65543;SDS011;52173;45.204;39.240;2022-08-07T12:27:38;3.30;;;1.67;;
65543;SDS011;52173;45.204;39.240;2022-08-07T12:30:11;6.55;;;1.90;;
65543;SDS011;52173;45.204;39.240;2022-08-07T12:32:42;11.02;;;2.10;;
65543;SDS011;52173;45.204;39.240;2022-08-07T12:35:14;14.50;;;2.28;;
65543;SDS011;52173;45.204;39.240;2022-08-07T12:37:45;4.30;;;2.15;;
65543;SDS011;52173;45.204;39.240;2022-08-07T12:40:21;6.13;;;2.40;;
65543;SDS011;52173;45.204;39.240;2022-08-07T12:42:51;6.72;;;2.38;;
65543;SDS011;52173;45.204;39.240;2022-08-07T12:46:03;6.43;;;2.17;;
65543;SDS011;52173;45.204;39.240;2022-08-07T12:48:12;13.98;;;2.50;;
65543;SDS011;52173;45.204;39.240;2022-08-07T12:51:17;3.17;;;1.73;;
65543;SDS011;52173;45.204;39.240;2022-08-07T12:54:05;6.88;;;1.95;;
65543;SDS011;52173;45.204;39.240;2022-08-07T12:56:57;6.72;;;2.28;;
65543;SDS011;52173;45.204;39.240;2022-08-07T12:59:28;4.32;;;2.20;;
65543;SDS011;52173;45.204;39.240;2022-08-07T13:07:49;4.45;;;2.10;;
65543;SDS011;52173;45.204;39.240;2022-08-07T13:16:21;6.82;;;2.50;;
65543;SDS011;52173;45.204;39.240;2022-08-07T13:19:15;11.55;;;2.33;;
65543;SDS011;52173;45.204;39.240;2022-08-07T13:21:49;6.00;;;2.35;;
65543;SDS011;52173;45.204;39.240;2022-08-07T13:24:24;5.60;;;2.22;;
65543;SDS011;52173;45.204;39.240;2022-08-07T13:27:07;5.75;;;2.20;;
65543;SDS011;52173;45.204;39.240;2022-08-07T13:29:43;3.55;;;2.13;;
65543;SDS011;52173;45.204;39.240;2022-08-07T13:32:24;4.90;;;2.38;;
65543;SDS011;52173;45.204;39.240;2022-08-07T13:35:06;4.43;;;1.90;;
65543;SDS011;52173;45.204;39.240;2022-08-07T13:38:01;6.00;;;2.20;;
65543;SDS011;52173;45.204;39.240;2022-08-07T13:40:29;11.02;;;1.92;;
65543;SDS011;52173;45.204;39.240;2022-08-07T13:43:06;4.55;;;1.90;;
65543;SDS011;52173;45.204;39.240;2022-08-07T13:45:38;5.60;;;2.03;;
65543;SDS011;52173;45.204;39.240;2022-08-07T13:48:06;4.40;;;1.95;;
65543;SDS011;52173;45.204;39.240;2022-08-07T13:50:35;6.18;;;2.30;;
65543;SDS011;52173;45.204;39.240;2022-08-07T13:53:05;7.43;;;2.20;;
65543;SDS011;52173;45.204;39.240;2022-08-07T13:55:33;6.43;;;2.17;;
65543;SDS011;52173;45.204;39.240;2022-08-07T13:58:05;6.57;;;2.13;;
65543;SDS011;52173;45.204;39.240;2022-08-07T14:00:54;5.25;;;1.88;;
65543;SDS011;52173;45.204;39.240;2022-08-07T14:03:23;6.68;;;2.05;;
65543;SDS011;52173;45.204;39.240;2022-08-07T14:05:52;8.80;;;2.10;;
65543;SDS011;52173;45.204;39.240;2022-08-07T14:08:23;5.65;;;1.92;;
65543;SDS011;52173;45.204;39.240;2022-08-07T14:10:51;5.32;;;2.47;;
65543;SDS011;52173;45.204;39.240;2022-08-07T14:13:25;19.15;;;2.30;;
65543;SDS011;52173;45.204;39.240;2022-08-07T14:18:37;5.60;;;2.15;;
65543;SDS011;52173;45.204;39.240;2022-08-07T14:21:12;5.55;;;1.60;;
65543;SDS011;52173;45.204;39.240;2022-08-07T14:23:45;4.10;;;1.90;;
65543;SDS011;52173;45.204;39.240;2022-08-07T14:26:43;4.40;;;1.60;;
65543;SDS011;52173;45.204;39.240;2022-08-07T14:29:26;3.08;;;1.63;;
65543;SDS011;52173;45.204;39.240;2022-08-07T14:32:05;4.28;;;1.80;;
65543;SDS011;52173;45.204;39.240;2022-08-07T14:34:38;3.72;;;1.80;;
65543;SDS011;52173;45.204;39.240;2022-08-07T14:37:07;5.30;;;1.85;;
65543;SDS011;52173;45.204;39.240;2022-08-07T14:39:36;5.13;;;2.20;;
65543;SDS011;52173;45.204;39.240;2022-08-07T14:42:06;4.78;;;1.60;;
65543;SDS011;52173;45.204;39.240;2022-08-07T14:44:37;4.03;;;1.50;;
65543;SDS011;52173;45.204;39.240;2022-08-07T14:47:12;2.75;;;1.27;;
65543;SDS011;52173;45.204;39.240;2022-08-07T14:49:41;3.65;;;1.60;;
65543;SDS011;52173;45.204;39.240;2022-08-07T14:52:09;5.97;;;1.73;;
65543;SDS011;52173;45.204;39.240;2022-08-07T14:54:37;2.65;;;1.55;;
65543;SDS011;52173;45.204;39.240;2022-08-07T14:57:05;11.60;;;2.20;;
65543;SDS011;52173;45.204;39.240;2022-08-07T14:59:39;25.92;;;3.10;;
65543;SDS011;52173;45.204;39.240;2022-08-07T15:02:11;3.65;;;1.70;;
65543;SDS011;52173;45.204;39.240;2022-08-07T15:04:41;7.85;;;1.52;;
65543;SDS011;52173;45.204;39.240;2022-08-07T15:07:10;4.18;;;1.70;;
65543;SDS011;52173;45.204;39.240;2022-08-07T15:09:44;5.00;;;1.50;;
65543;SDS011;52173;45.204;39.240;2022-08-07T15:12:14;3.55;;;1.70;;
65543;SDS011;52173;45.204;39.240;2022-08-07T15:14:50;7.55;;;1.63;;
65543;SDS011;52173;45.204;39.240;2022-08-07T15:17:22;6.53;;;1.70;;
65543;SDS011;52173;45.204;39.240;2022-08-07T15:19:57;2.25;;;1.40;;
65543;SDS011;52173;45.204;39.240;2022-08-07T15:22:29;6.50;;;1.90;;
65543;SDS011;52173;45.204;39.240;2022-08-07T15:24:58;4.60;;;1.60;;
65543;SDS011;52173;45.204;39.240;2022-08-07T15:27:27;22.20;;;2.42;;
65543;SDS011;52173;45.204;39.240;2022-08-07T15:29:58;6.03;;;2.10;;
65543;SDS011;52173;45.204;39.240;2022-08-07T15:32:27;3.17;;;1.50;;
65543;SDS011;52173;45.204;39.240;2022-08-07T15:34:56;5.22;;;2.17;;
65543;SDS011;52173;45.204;39.240;2022-08-07T15:37:25;6.18;;;1.60;;
65543;SDS011;52173;45.204;39.240;2022-08-07T15:39:59;9.80;;;2.20;;
65543;SDS011;52173;45.204;39.240;2022-08-07T15:45:13;5.68;;;2.08;;
65543;SDS011;52173;45.204;39.240;2022-08-07T15:47:52;4.75;;;1.60;;
65543;SDS011;52173;45.204;39.240;2022-08-07T15:50:28;4.90;;;1.60;;
65543;SDS011;52173;45.204;39.240;2022-08-07T15:52:58;6.68;;;2.05;;
65543;SDS011;52173;45.204;39.240;2022-08-07T15:55:33;4.43;;;1.60;;
65543;SDS011;52173;45.204;39.240;2022-08-07T15:58:01;7.25;;;1.83;;
65543;SDS011;52173;45.204;39.240;2022-08-07T16:00:34;4.32;;;1.45;;
65543;SDS011;52173;45.204;39.240;2022-08-07T16:03:13;5.63;;;1.45;;
65543;SDS011;52173;45.204;39.240;2022-08-07T16:05:44;3.67;;;1.48;;
65543;SDS011;52173;45.204;39.240;2022-08-07T16:08:18;17.83;;;2.13;;
65543;SDS011;52173;45.204;39.240;2022-08-07T16:10:56;8.57;;;1.60;;
65543;SDS011;52173;45.204;39.240;2022-08-07T16:13:35;6.63;;;1.52;;
65543;SDS011;52173;45.204;39.240;2022-08-07T16:21:52;4.82;;;1.52;;
65543;SDS011;52173;45.204;39.240;2022-08-07T16:24:37;4.75;;;1.60;;
65543;SDS011;52173;45.204;39.240;2022-08-07T16:30:09;5.97;;;1.50;;
65543;SDS011;52173;45.204;39.240;2022-08-07T16:46:09;4.60;;;1.70;;
65543;SDS011;52173;45.204;39.240;2022-08-07T16:51:30;14.35;;;2.20;;
65543;SDS011;52173;45.204;39.240;2022-08-07T16:57:09;5.33;;;1.80;;
65543;SDS011;52173;45.204;39.240;2022-08-07T17:18:45;9.15;;;1.73;;
65543;SDS011;52173;45.204;39.240;2022-08-07T17:21:17;12.60;;;1.90;;
65543;SDS011;52173;45.204;39.240;2022-08-07T17:29:48;57.28;;;28.15;;
65543;SDS011;52173;45.204;39.240;2022-08-07T17:32:47;131.60;;;60.63;;
65543;SDS011;52173;45.204;39.240;2022-08-07T17:38:18;343.57;;;150.37;;
65543;SDS011;52173;45.204;39.240;2022-08-07T17:41:08;297.58;;;133.43;;
65543;SDS011;52173;45.204;39.240;2022-08-07T17:44:06;240.27;;;110.13;;
65543;SDS011;52173;45.204;39.240;2022-08-07T17:47:02;156.93;;;71.53;;
65543;SDS011;52173;45.204;39.240;2022-08-07T17:49:29;115.82;;;57.38;;
65543;SDS011;52173;45.204;39.240;2022-08-07T17:52:09;57.58;;;37.60;;
65543;SDS011;52173;45.204;39.240;2022-08-07T17:55:12;78.05;;;31.17;;
65543;SDS011;52173;45.204;39.240;2022-08-07T18:00:11;32.50;;;15.80;;
65543;SDS011;52173;45.204;39.240;2022-08-07T18:02:45;34.80;;;17.20;;
65543;SDS011;52173;45.204;39.240;2022-08-07T18:06:13;29.92;;;16.33;;
65543;SDS011;52173;45.204;39.240;2022-08-07T18:08:32;23.27;;;10.68;;
65543;SDS011;52173;45.204;39.240;2022-08-07T18:11:22;24.80;;;10.57;;
65543;SDS011;52173;45.204;39.240;2022-08-07T18:16:56;100.78;;;46.13;;
65543;SDS011;52173;45.204;39.240;2022-08-07T18:22:12;56.90;;;33.72;;
65543;SDS011;52173;45.204;39.240;2022-08-07T18:24:49;56.50;;;32.72;;
65543;SDS011;52173;45.204;39.240;2022-08-07T18:30:48;54.88;;;31.42;;
65543;SDS011;52173;45.204;39.240;2022-08-07T18:37:04;55.97;;;27.08;;
65543;SDS011;52173;45.204;39.240;2022-08-07T18:40:28;38.35;;;22.48;;